createdAt,value
2023-02-27T00:00:23.613Z,99681.08
2023-02-27T00:03:46.688Z,99689.58
2023-02-27T00:06:49.406Z,99694.62
2023-02-27T00:09:52.820Z,99698.05
2023-02-27T00:12:56.120Z,99699.88
2023-02-27T00:15:59.010Z,99700.73
2023-02-27T00:19:04.823Z,99706.20
2023-02-27T00:22:07.517Z,99708.52
2023-02-27T00:25:10.883Z,99704.74
2023-02-27T00:28:13.503Z,99714.25
2023-02-27T00:31:16.269Z,99719.90
2023-02-27T00:34:19.068Z,99721.38
2023-02-27T00:37:21.719Z,99720.44
2023-02-27T00:40:25.525Z,99717.46
2023-02-27T00:43:28.196Z,99713.52
2023-02-27T00:46:32.474Z,99719.13
2023-02-27T00:49:35.131Z,99719.98
2023-02-27T00:52:37.944Z,99721.77
2023-02-27T00:55:40.615Z,99723.13
2023-02-27T00:58:43.256Z,99716.77
2023-02-27T01:01:45.962Z,99717.39
2023-02-27T01:04:48.651Z,99715.65
2023-02-27T01:07:51.440Z,99714.14
2023-02-27T01:10:55.011Z,99717.18
2023-02-27T01:13:57.617Z,99713.91
2023-02-27T01:17:00.282Z,99715.00
2023-02-27T01:20:03.608Z,99715.91
2023-02-27T01:23:06.369Z,99716.66
2023-02-27T01:26:09.075Z,99716.28
2023-02-27T01:29:11.719Z,99719.87
2023-02-27T01:32:14.880Z,99723.31
2023-02-27T01:35:18.040Z,99720.73
2023-02-27T01:38:20.706Z,99724.96
2023-02-27T01:41:23.346Z,99724.63
2023-02-27T01:44:29.079Z,99719.58
2023-02-27T01:47:32.453Z,99721.30
2023-02-27T01:50:37.082Z,99724.73
2023-02-27T01:53:41.822Z,99727.19
2023-02-27T01:56:48.372Z,99727.10
2023-02-27T01:59:51.042Z,99728.83
2023-02-27T02:02:59.528Z,99730.45
2023-02-27T02:06:04.226Z,99732.76
2023-02-27T02:09:07.908Z,99734.11
2023-02-27T02:12:14.954Z,99735.50
2023-02-27T02:15:19.583Z,99735.23
2023-02-27T02:18:27.222Z,99733.06
2023-02-27T02:21:32.705Z,99735.33
2023-02-27T02:24:50.131Z,99733.85
2023-02-27T02:27:55.528Z,99734.38
2023-02-27T02:31:16.848Z,99738.58
2023-02-27T02:34:19.545Z,99742.55
2023-02-27T02:37:34.511Z,99744.85
2023-02-27T02:40:40.331Z,99752.79
2023-02-27T02:43:50.147Z,99760.41
2023-02-27T02:47:12.203Z,99766.67
2023-02-27T02:50:22.284Z,99773.27
2023-02-27T02:53:36.730Z,99770.83
2023-02-27T02:56:47.883Z,99771.94
2023-02-27T02:59:55.936Z,99776.42
2023-02-27T03:03:24.764Z,99784.05
2023-02-27T03:06:36.185Z,99787.48
2023-02-27T03:09:52.963Z,99791.50
2023-02-27T03:13:12.402Z,99793.44
2023-02-27T03:16:27.518Z,99796.04
2023-02-27T03:19:46.329Z,99796.84
2023-02-27T03:22:52.420Z,99800.94
2023-02-27T03:25:58.232Z,99804.90
2023-02-27T03:29:06.363Z,99806.57
2023-02-27T03:32:15.230Z,99815.23
2023-02-27T03:35:18.315Z,99813.74
2023-02-27T03:38:41.758Z,99809.65
2023-02-27T03:41:50.940Z,99816.09
2023-02-27T03:45:06.408Z,99820.19
2023-02-27T03:48:09.201Z,99823.83
2023-02-27T03:51:17.573Z,99822.09
2023-02-27T03:54:20.184Z,99827.55
2023-02-27T03:57:23.138Z,99830.71
2023-02-27T04:00:26.696Z,99838.39
2023-02-27T04:03:32.796Z,99844.23
2023-02-27T04:06:56.230Z,99851.50
2023-02-27T04:10:12.455Z,99853.95
2023-02-27T04:13:15.169Z,99857.48
2023-02-27T04:16:20.868Z,99857.77
2023-02-27T04:19:23.641Z,99853.56
2023-02-27T04:22:34.054Z,99853.66
2023-02-27T04:25:41.652Z,99856.22
2023-02-27T04:28:47.174Z,99856.56
2023-02-27T04:32:02.575Z,99858.44
2023-02-27T04:35:21.692Z,99864.29
2023-02-27T04:38:37.931Z,99861.27
2023-02-27T04:41:47.255Z,99861.85
2023-02-27T04:44:51.663Z,99860.91
2023-02-27T04:48:06.936Z,99857.56
2023-02-27T04:51:14.456Z,99859.61
2023-02-27T04:54:21.450Z,99860.27
2023-02-27T04:57:28.263Z,99865.50
2023-02-27T05:00:32.778Z,99872.61
2023-02-27T05:03:38.732Z,99873.36
2023-02-27T05:06:43.332Z,99876.86
2023-02-27T05:09:45.951Z,99880.92
2023-02-27T05:12:51.561Z,99877.80
2023-02-27T05:16:07.902Z,99880.05
2023-02-27T05:19:11.043Z,99883.48
2023-02-27T05:22:21.881Z,99886.20
2023-02-27T05:25:30.991Z,99887.07
2023-02-27T05:28:46.482Z,99893.95
2023-02-27T05:31:55.195Z,99901.72
2023-02-27T05:35:03.293Z,99903.96
2023-02-27T05:38:10.357Z,99907.34
2023-02-27T05:41:16.431Z,99913.83
2023-02-27T05:44:21.017Z,99912.94
2023-02-27T05:47:26.867Z,99914.98
2023-02-27T05:50:32.152Z,99920.30
2023-02-27T05:53:38.178Z,99925.70
2023-02-27T05:56:47.092Z,99928.56
2023-02-27T06:00:03.410Z,99933.34
2023-02-27T06:03:14.749Z,99932.65
2023-02-27T06:06:19.107Z,99935.00
2023-02-27T06:09:22.245Z,99938.45
2023-02-27T06:12:25.438Z,99936.80
2023-02-27T06:15:28.505Z,99942.84
2023-02-27T06:18:31.186Z,99943.38
2023-02-27T06:21:33.928Z,99941.92
2023-02-27T06:24:37.039Z,99944.18
2023-02-27T06:27:39.694Z,99945.42
2023-02-27T06:30:42.753Z,99950.24
2023-02-27T06:33:46.403Z,99951.81
2023-02-27T06:36:49.075Z,99957.16
2023-02-27T06:39:52.114Z,99958.93
2023-02-27T06:42:54.946Z,99957.38
2023-02-27T06:45:57.795Z,99960.16
2023-02-27T06:49:00.456Z,99962.20
2023-02-27T06:52:03.120Z,99966.67
2023-02-27T06:55:07.260Z,99971.90
2023-02-27T06:58:09.888Z,99975.65
2023-02-27T07:01:13.551Z,99979.27
2023-02-27T07:04:16.569Z,99986.55
2023-02-27T07:07:35.531Z,99989.14
2023-02-27T07:10:42.896Z,99990.64
2023-02-27T07:13:45.535Z,99993.04
2023-02-27T07:16:51.036Z,99996.27
2023-02-27T07:19:54.650Z,99994.72
2023-02-27T07:22:57.419Z,99999.08
2023-02-27T07:26:00.322Z,99999.55
2023-02-27T07:29:03.589Z,100000.89
2023-02-27T07:32:06.409Z,100003.23
2023-02-27T07:35:09.840Z,100005.73
2023-02-27T07:38:12.508Z,100007.98
2023-02-27T07:41:29.512Z,100011.35
2023-02-27T07:44:35.715Z,100017.11
2023-02-27T07:47:38.484Z,100019.14
2023-02-27T07:50:41.104Z,100016.63
2023-02-27T07:53:44.065Z,100022.23
2023-02-27T07:56:46.683Z,100025.00
2023-02-27T07:59:49.325Z,100028.35
2023-02-27T08:02:51.986Z,100030.16
2023-02-27T08:05:54.645Z,100030.54
2023-02-27T08:08:57.470Z,100036.62
2023-02-27T08:12:00.121Z,100037.41
2023-02-27T08:15:02.901Z,100038.41
2023-02-27T08:18:05.553Z,100042.04
2023-02-27T08:21:08.614Z,100045.13
2023-02-27T08:24:11.242Z,100046.61
2023-02-27T08:27:14.731Z,100052.34
2023-02-27T08:30:17.432Z,100058.36
2023-02-27T08:33:20.133Z,100056.95
2023-02-27T08:36:22.747Z,100058.91
2023-02-27T08:39:25.389Z,100068.08
2023-02-27T08:42:28.558Z,100065.90
2023-02-27T08:45:31.188Z,100068.88
2023-02-27T08:48:33.954Z,100069.91
2023-02-27T08:51:36.569Z,100070.91
2023-02-27T08:54:39.173Z,100086.83
2023-02-27T08:57:41.801Z,100082.56
2023-02-27T09:00:44.427Z,100080.64
2023-02-27T09:03:47.063Z,100078.79
2023-02-27T09:06:49.662Z,100087.88
2023-02-27T09:09:52.260Z,100086.35
2023-02-27T09:12:54.866Z,100087.48
2023-02-27T09:15:57.498Z,100088.77
2023-02-27T09:19:00.276Z,100092.53
2023-02-27T09:22:02.875Z,100093.33
2023-02-27T09:25:06.019Z,100099.47
2023-02-27T09:28:08.709Z,100110.27
2023-02-27T09:31:12.369Z,100106.23
2023-02-27T09:34:15.067Z,100099.48
2023-02-27T09:37:19.237Z,100100.74
2023-02-27T09:40:24.377Z,100102.04
2023-02-27T09:43:32.662Z,100102.01
2023-02-27T09:46:35.406Z,100105.27
2023-02-27T09:49:48.090Z,100105.68
2023-02-27T09:52:50.684Z,100115.38
2023-02-27T09:55:54.611Z,100120.16
2023-02-27T09:59:03.252Z,100124.98
2023-02-27T10:02:17.931Z,100125.06
2023-02-27T10:05:32.353Z,100122.00
2023-02-27T10:08:41.151Z,100118.57
2023-02-27T10:11:43.794Z,100128.44
2023-02-27T10:14:57.055Z,100136.72
2023-02-27T10:17:59.758Z,100131.61
2023-02-27T10:21:13.342Z,100132.66
2023-02-27T10:24:27.690Z,100130.91
2023-02-27T10:27:31.341Z,100139.58
2023-02-27T10:30:35.074Z,100143.84
2023-02-27T10:33:39.522Z,100145.90
2023-02-27T10:36:46.680Z,100142.95
2023-02-27T10:39:57.717Z,100141.00
2023-02-27T10:43:01.787Z,100142.61
2023-02-27T10:46:11.006Z,100142.77
2023-02-27T10:49:16.934Z,100139.83
2023-02-27T10:52:21.245Z,100144.89
2023-02-27T10:55:28.513Z,100133.95
2023-02-27T10:58:35.004Z,100134.35
2023-02-27T11:01:42.580Z,100139.52
2023-02-27T11:04:56.010Z,100146.52
2023-02-27T11:08:20.743Z,100145.23
2023-02-27T11:11:28.177Z,100146.83
2023-02-27T11:14:34.486Z,100144.29
2023-02-27T11:17:37.265Z,100149.13
2023-02-27T11:20:43.384Z,100143.79
2023-02-27T11:23:55.388Z,100140.22
2023-02-27T11:27:05.635Z,100138.90
2023-02-27T11:30:22.466Z,100129.30
2023-02-27T11:33:26.306Z,100130.41
2023-02-27T11:36:39.229Z,100133.15
2023-02-27T11:40:02.066Z,100128.30
2023-02-27T11:43:07.318Z,100115.73
2023-02-27T11:46:45.147Z,100109.34
2023-02-27T11:49:55.230Z,100112.62
2023-02-27T11:53:01.241Z,100113.64
2023-02-27T11:56:05.661Z,100118.48
2023-02-27T11:59:16.913Z,100119.42
2023-02-27T12:02:19.648Z,100113.98
2023-02-27T12:05:30.625Z,100116.92
2023-02-27T12:08:49.148Z,100126.28
2023-02-27T12:11:52.179Z,100125.36
2023-02-27T12:15:13.256Z,100123.22
2023-02-27T12:18:23.208Z,100121.45
2023-02-27T12:21:28.500Z,100123.76
2023-02-27T12:24:41.136Z,100120.70
2023-02-27T12:27:47.078Z,100118.61
2023-02-27T12:31:00.876Z,100122.23
2023-02-27T12:34:03.500Z,100123.98
2023-02-27T12:37:11.217Z,100129.79
2023-02-27T12:40:15.731Z,100133.73
2023-02-27T12:43:28.593Z,100137.63
2023-02-27T12:46:34.330Z,100137.75
2023-02-27T12:49:37.029Z,100140.86
2023-02-27T12:53:08.925Z,100140.70
2023-02-27T12:56:17.398Z,100143.70
2023-02-27T12:59:29.011Z,100148.27
2023-02-27T13:02:54.130Z,100152.23
2023-02-27T13:06:10.762Z,100154.49
2023-02-27T13:09:25.938Z,100149.70
2023-02-27T13:12:28.610Z,100149.59
2023-02-27T13:15:35.171Z,100150.45
2023-02-27T13:18:40.852Z,100149.33
2023-02-27T13:21:43.483Z,100148.40
2023-02-27T13:24:49.317Z,100155.05
2023-02-27T13:27:54.197Z,100156.13
2023-02-27T13:31:05.964Z,100157.81
2023-02-27T13:34:16.075Z,100159.80
2023-02-27T13:37:18.829Z,100163.76
2023-02-27T13:40:29.186Z,100167.96
2023-02-27T13:43:51.149Z,100166.11
2023-02-27T13:46:54.356Z,100165.52
2023-02-27T13:49:57.628Z,100167.63
2023-02-27T13:53:08.637Z,100173.61
2023-02-27T13:56:22.722Z,100167.77
2023-02-27T13:59:25.353Z,100167.81
2023-02-27T14:02:57.785Z,100165.33
2023-02-27T14:06:03.068Z,100165.93
2023-02-27T14:09:15.085Z,100165.72
2023-02-27T14:12:42.553Z,100165.31
2023-02-27T14:15:47.002Z,100163.45
2023-02-27T14:18:57.735Z,100163.73
2023-02-27T14:22:24.516Z,100170.52
2023-02-27T14:25:32.087Z,100174.98
2023-02-27T14:28:47.501Z,100185.20
2023-02-27T14:31:51.276Z,100186.42
2023-02-27T14:34:54.889Z,100185.22
2023-02-27T14:37:59.108Z,100184.69
2023-02-27T14:41:15.920Z,100187.02
2023-02-27T14:44:23.454Z,100193.00
2023-02-27T14:47:35.175Z,100192.92
2023-02-27T14:50:40.307Z,100194.75
2023-02-27T14:53:42.999Z,100194.84
2023-02-27T14:57:04.250Z,100199.27
2023-02-27T15:00:07.471Z,100201.39
2023-02-27T15:03:18.773Z,100205.05
2023-02-27T15:06:30.673Z,100204.96
2023-02-27T15:09:43.057Z,100201.77
2023-02-27T15:12:45.992Z,100210.57
2023-02-27T15:15:49.427Z,100210.32
2023-02-27T15:18:53.589Z,100210.63
2023-02-27T15:21:58.862Z,100210.66
2023-02-27T15:25:03.773Z,100216.68
2023-02-27T15:28:08.118Z,100219.80
2023-02-27T15:31:13.166Z,100223.41
2023-02-27T15:34:16.198Z,100227.94
2023-02-27T15:37:21.189Z,100235.08
2023-02-27T15:40:26.058Z,100237.90
2023-02-27T15:43:29.613Z,100237.77
2023-02-27T15:46:33.178Z,100244.91
2023-02-27T15:49:36.291Z,100252.02
2023-02-27T15:52:41.857Z,100255.09
2023-02-27T15:55:50.769Z,100262.39
2023-02-27T15:59:00.144Z,100268.40
2023-02-27T16:02:04.840Z,100269.94
2023-02-27T16:05:15.830Z,100274.23
2023-02-27T16:08:20.054Z,100272.30
2023-02-27T16:11:27.019Z,100276.92
2023-02-27T16:14:41.172Z,100283.64
2023-02-27T16:17:57.600Z,100286.92
2023-02-27T16:21:11.241Z,100291.70
2023-02-27T16:24:21.155Z,100296.93
2023-02-27T16:27:27.771Z,100304.98
2023-02-27T16:30:30.409Z,100307.59
2023-02-27T16:33:36.668Z,100313.03
2023-02-27T16:36:41.054Z,100316.41
2023-02-27T16:39:43.734Z,100317.45
2023-02-27T16:42:46.776Z,100329.21
2023-02-27T16:45:50.977Z,100334.31
2023-02-27T16:48:55.288Z,100339.80
2023-02-27T16:51:58.816Z,100341.77
2023-02-27T16:55:02.244Z,100345.98
2023-02-27T16:58:06.461Z,100345.92
2023-02-27T17:01:09.164Z,100348.78
2023-02-27T17:04:24.971Z,100352.48
2023-02-27T17:07:28.355Z,100361.69
2023-02-27T17:10:30.976Z,100366.04
2023-02-27T17:13:36.586Z,100365.27
2023-02-27T17:16:39.370Z,100369.91
2023-02-27T17:19:42.123Z,100372.14
2023-02-27T17:22:45.204Z,100376.91
2023-02-27T17:25:48.111Z,100381.00
2023-02-27T17:28:50.814Z,100383.27
2023-02-27T17:31:53.482Z,100390.30
2023-02-27T17:34:56.585Z,100389.27
2023-02-27T17:37:59.604Z,100389.18
2023-02-27T17:41:09.598Z,100392.17
2023-02-27T17:44:12.460Z,100390.25
2023-02-27T17:47:15.419Z,100386.27
2023-02-27T17:50:18.232Z,100382.40
2023-02-27T17:53:20.840Z,100383.95
2023-02-27T17:56:24.151Z,100387.52
2023-02-27T17:59:26.970Z,100391.12
2023-02-27T18:02:29.958Z,100392.64
2023-02-27T18:05:32.799Z,100395.15
2023-02-27T18:08:36.043Z,100394.79
2023-02-27T18:11:38.983Z,100394.48
2023-02-27T18:14:41.613Z,100404.71
2023-02-27T18:17:44.735Z,100405.11
2023-02-27T18:20:47.437Z,100417.60
2023-02-27T18:23:51.738Z,100417.71
2023-02-27T18:26:54.636Z,100418.81
2023-02-27T18:29:57.741Z,100419.59
2023-02-27T18:33:00.392Z,100419.59
2023-02-27T18:36:03.117Z,100425.27
2023-02-27T18:39:06.356Z,100420.10
2023-02-27T18:42:09.239Z,100419.43
2023-02-27T18:45:12.068Z,100421.54
2023-02-27T18:48:16.075Z,100418.55
2023-02-27T18:51:19.751Z,100427.66
2023-02-27T18:54:22.443Z,100421.81
2023-02-27T18:57:25.207Z,100423.20
2023-02-27T19:00:27.961Z,100423.64
2023-02-27T19:03:31.167Z,100427.45
2023-02-27T19:06:35.736Z,100428.21
2023-02-27T19:09:38.461Z,100426.48
2023-02-27T19:12:42.364Z,100434.67
2023-02-27T19:15:45.112Z,100436.80
2023-02-27T19:18:47.789Z,100436.81
2023-02-27T19:21:50.600Z,100440.88
2023-02-27T19:24:53.293Z,100444.73
2023-02-27T19:27:56.693Z,100442.47
2023-02-27T19:30:59.633Z,100440.64
2023-02-27T19:34:02.351Z,100441.98
2023-02-27T19:37:05.046Z,100440.36
2023-02-27T19:40:08.964Z,100444.92
2023-02-27T19:43:15.193Z,100444.67
2023-02-27T19:46:22.271Z,100447.84
2023-02-27T19:49:25.094Z,100447.30
2023-02-27T19:52:29.673Z,100451.67
2023-02-27T19:55:32.585Z,100448.59
2023-02-27T19:58:36.097Z,100448.09
2023-02-27T20:01:39.150Z,100452.26
2023-02-27T20:04:42.035Z,100455.55
2023-02-27T20:07:46.961Z,100454.83
2023-02-27T20:11:02.925Z,100458.45
2023-02-27T20:14:05.787Z,100459.75
2023-02-27T20:17:08.495Z,100462.66
2023-02-27T20:20:11.561Z,100461.72
2023-02-27T20:23:15.431Z,100462.27
2023-02-27T20:26:26.595Z,100466.20
2023-02-27T20:29:29.399Z,100466.17
2023-02-27T20:32:32.188Z,100467.14
2023-02-27T20:35:38.787Z,100464.95
2023-02-27T20:38:41.535Z,100467.70
2023-02-27T20:41:45.060Z,100474.23
2023-02-27T20:44:48.498Z,100473.36
2023-02-27T20:47:51.386Z,100469.50
2023-02-27T20:50:54.017Z,100474.70
2023-02-27T20:53:58.773Z,100478.23
2023-02-27T20:57:01.457Z,100482.52
2023-02-27T21:00:05.429Z,100480.93
2023-02-27T21:03:08.234Z,100486.66
2023-02-27T21:06:13.145Z,100491.76
2023-02-27T21:09:16.240Z,100490.71
2023-02-27T21:12:43.094Z,100490.38
2023-02-27T21:16:27.546Z,100492.89
2023-02-27T21:19:30.225Z,100495.02
2023-02-27T21:22:32.992Z,100496.55
2023-02-27T21:25:40.395Z,100495.70
2023-02-27T21:28:47.791Z,100496.10
2023-02-27T21:31:51.392Z,100497.31
2023-02-27T21:34:54.273Z,100497.49
2023-02-27T21:37:56.995Z,100499.75
2023-02-27T21:41:04.187Z,100503.36
2023-02-27T21:44:07.463Z,100508.95
2023-02-27T21:47:10.418Z,100507.66
2023-02-27T21:50:18.138Z,100504.12
2023-02-27T21:53:20.860Z,100502.17
2023-02-27T21:56:23.873Z,100505.64
2023-02-27T21:59:26.487Z,100508.10
2023-02-27T22:02:29.150Z,100512.39
2023-02-27T22:05:31.958Z,100510.77
2023-02-27T22:08:34.577Z,100507.68
2023-02-27T22:11:37.270Z,100515.81
2023-02-27T22:14:39.944Z,100513.59
2023-02-27T22:17:42.553Z,100513.77
2023-02-27T22:20:45.160Z,100518.48
2023-02-27T22:23:48.310Z,100513.86
2023-02-27T22:26:50.943Z,100518.76
2023-02-27T22:29:53.596Z,100515.58
2023-02-27T22:32:56.412Z,100519.66
2023-02-27T22:35:59.061Z,100523.94
2023-02-27T22:39:01.890Z,100529.73
2023-02-27T22:42:04.585Z,100533.13
2023-02-27T22:45:07.647Z,100529.42
2023-02-27T22:48:10.499Z,100533.08
2023-02-27T22:51:14.621Z,100534.06
2023-02-27T22:54:17.583Z,100533.20
2023-02-27T22:57:20.243Z,100534.35
2023-02-27T23:00:23.081Z,100539.58
2023-02-27T23:03:25.737Z,100537.72
2023-02-27T23:06:33.818Z,100535.21
2023-02-27T23:09:36.438Z,100543.02
2023-02-27T23:12:39.027Z,100541.48
2023-02-27T23:15:41.879Z,100549.38
2023-02-27T23:18:46.386Z,100555.15
2023-02-27T23:21:49.138Z,100555.55
2023-02-27T23:24:51.815Z,100556.95
2023-02-27T23:27:54.412Z,100561.05
2023-02-27T23:30:57.168Z,100563.73
2023-02-27T23:33:59.776Z,100559.83
2023-02-27T23:37:04.325Z,100562.25
2023-02-27T23:40:07.835Z,100565.73
2023-02-27T23:43:10.817Z,100566.45
2023-02-27T23:46:14.657Z,100567.44
2023-02-27T23:49:17.497Z,100564.96
2023-02-27T23:52:20.114Z,100566.54
2023-02-27T23:55:22.969Z,100562.44
2023-02-27T23:58:25.717Z,100561.20
